Bandera, Texas
Current Conditions -  °F | °C
As of 4:35 PM on Monday 24 Nov 2014 (Local Time) from KERV Reporting Station
Clear Clear  
Wind Chill: 59°   Ceiling: Unl
Heat Index: 59°   Visibility: 10mi
Dew Point: 19°   Wind: 6mph
Humidity: 22%   Direction: 320°NW
Pressure: 30.06"   Gusts: NA
Location:  29.73°N, 99.07°W
Report Text: KERV 242235Z AUTO 32005KT 10SM CLR 15/M07 A3006 RMK AO2 T01481070
Loading
Personal Weather Stations






























Interactive Weather Map New forecast layout! Learn more

10-Day Weather Forecast

Advertisements
Track Severe Weather on mobile